Time;durP1;ratioP1;P1;durP2;ratioP2;P2;SDS_P1;SDS_P2;PMS_P1;PMS_P2;Temp;Humidity;BMP_temperature;BMP_pressure;BME280_temperature;BME280_humidity;BME280_pressure;Samples;Min_cycle;Max_cycle;Signal;HPM_P1;HPM_P2
2021/05/07 00:01:10;;;;;;;0.30;0.30;;;5.40;99.90;;;;;;5062526;28;20228;-90
2021/05/07 00:03:36;;;;;;;0.20;0.20;;;5.40;99.90;;;;;;5053909;28;20189;-89
2021/05/07 00:06:04;;;;;;;0.47;0.47;;;5.30;99.90;;;;;;5065409;28;20240;-90
2021/05/07 00:08:33;;;;;;;0.40;0.40;;;5.30;99.90;;;;;;5071068;28;20224;-89
2021/05/07 00:11:02;;;;;;;3.70;0.60;;;5.30;99.90;;;;;;5095358;28;20221;-90
2021/05/07 00:13:28;;;;;;;0.47;0.47;;;5.30;99.90;;;;;;5069879;28;20224;-89
2021/05/07 00:15:55;;;;;;;0.23;0.23;;;5.30;99.90;;;;;;5076276;28;20756;-90
2021/05/07 00:18:21;;;;;;;0.50;0.50;;;5.30;99.90;;;;;;5069973;28;20193;-90
2021/05/07 00:20:46;;;;;;;0.37;0.37;;;5.30;99.90;;;;;;5077541;28;20209;-90
2021/05/07 00:23:12;;;;;;;5.70;0.70;;;5.30;99.90;;;;;;5062183;28;20212;-89
2021/05/07 00:25:39;;;;;;;0.40;0.40;;;5.30;99.90;;;;;;5047943;28;20220;-90
2021/05/07 00:28:06;;;;;;;0.60;0.60;;;5.30;99.90;;;;;;5074307;28;20951;-89
2021/05/07 00:30:33;;;;;;;0.30;0.30;;;5.30;99.90;;;;;;5059949;28;20565;-89
2021/05/07 00:32:59;;;;;;;0.30;0.30;;;5.20;99.90;;;;;;5077865;28;20228;-90
2021/05/07 00:35:25;;;;;;;0.87;0.40;;;5.20;99.90;;;;;;5059559;28;20201;-90
2021/05/07 00:37:51;;;;;;;0.33;0.33;;;5.20;99.90;;;;;;5076698;28;20220;-90
2021/05/07 00:40:17;;;;;;;0.40;0.40;;;5.20;99.90;;;;;;5075066;28;20351;-90
2021/05/07 00:42:43;;;;;;;0.57;0.57;;;5.10;99.90;;;;;;5075041;28;20185;-90
2021/05/07 00:45:11;;;;;;;0.50;0.50;;;5.10;99.90;;;;;;5093467;28;20192;-90
2021/05/07 00:48:08;;;;;;;0.40;0.40;;;5.10;99.90;;;;;;5057571;28;20232;-90
2021/05/07 00:50:36;;;;;;;0.63;0.50;;;5.10;99.90;;;;;;5054631;28;20215;-91
2021/05/07 00:53:03;;;;;;;0.70;0.70;;;5.10;99.90;;;;;;5057635;28;20289;-89
2021/05/07 00:55:31;;;;;;;0.53;0.53;;;5.10;99.90;;;;;;5069745;28;20354;-89
2021/05/07 00:57:57;;;;;;;0.40;0.40;;;5.10;99.90;;;;;;5058839;28;20212;-90
2021/05/07 01:00:25;;;;;;;0.53;0.53;;;5.20;99.90;;;;;;5084548;28;20196;-90
2021/05/07 01:02:50;;;;;;;0.63;0.63;;;5.10;99.90;;;;;;5094824;28;20210;-89
2021/05/07 01:05:17;;;;;;;0.47;0.47;;;5.10;99.90;;;;;;5055488;28;20213;-90
2021/05/07 01:07:43;;;;;;;1.40;0.60;;;5.00;99.90;;;;;;5061614;28;21005;-90
2021/05/07 01:10:11;;;;;;;0.40;0.40;;;4.90;99.90;;;;;;5048796;28;20225;-89
2021/05/07 01:12:39;;;;;;;0.30;0.30;;;4.80;99.90;;;;;;5039713;28;20193;-89
2021/05/07 01:15:05;;;;;;;0.43;0.43;;;4.70;99.90;;;;;;5048559;28;20206;-90
2021/05/07 01:17:31;;;;;;;0.60;0.60;;;4.70;99.90;;;;;;5063446;28;20253;-89
2021/05/07 01:20:17;;;;;;;0.60;0.43;;;4.60;99.90;;;;;;5067002;28;20228;-89
2021/05/07 01:22:49;;;;;;;0.40;0.40;;;4.60;99.90;;;;;;5074618;28;20206;-89
2021/05/07 01:25:18;;;;;;;0.30;0.30;;;4.60;99.90;;;;;;5076334;28;20216;-89
2021/05/07 01:27:45;;;;;;;0.30;0.30;;;4.60;99.90;;;;;;5092275;28;21166;-90
2021/05/07 01:30:11;;;;;;;0.40;0.40;;;4.60;99.90;;;;;;5060764;28;20689;-90
2021/05/07 01:32:38;;;;;;;0.47;0.47;;;4.70;99.90;;;;;;5076812;28;20221;-90
2021/05/07 01:35:07;;;;;;;0.70;0.70;;;4.60;99.90;;;;;;5065628;28;20222;-90
2021/05/07 01:37:33;;;;;;;1.07;1.07;;;4.60;99.90;;;;;;5075994;28;20217;-90
2021/05/07 01:39:58;;;;;;;0.43;0.43;;;4.50;99.90;;;;;;5058588;28;21332;-90
2021/05/07 01:42:24;;;;;;;0.77;0.60;;;4.50;99.90;;;;;;5052120;28;20208;-90
2021/05/07 01:44:50;;;;;;;1.50;1.20;;;4.40;99.90;;;;;;5084359;28;20238;-90
2021/05/07 01:47:15;;;;;;;0.60;0.60;;;4.40;99.90;;;;;;5067311;28;20673;-90
2021/05/07 01:49:42;;;;;;;1.00;0.90;;;4.20;99.90;;;;;;5076364;28;20301;-90
2021/05/07 01:52:07;;;;;;;1.07;1.07;;;4.20;99.90;;;;;;5061431;28;20727;-91
2021/05/07 01:54:33;;;;;;;0.90;0.90;;;4.10;99.90;;;;;;5065204;28;20205;-90
2021/05/07 01:56:59;;;;;;;0.50;0.50;;;4.00;99.90;;;;;;5067466;28;20300;-89
2021/05/07 01:59:24;;;;;;;0.40;0.40;;;4.00;99.90;;;;;;5055677;28;20217;-89
2021/05/07 02:01:50;;;;;;;0.60;0.60;;;4.00;99.90;;;;;;5049585;28;20249;-89
2021/05/07 02:04:16;;;;;;;0.93;0.67;;;4.00;99.90;;;;;;5047482;28;20217;-89
2021/05/07 02:06:42;;;;;;;0.50;0.50;;;4.10;99.90;;;;;;5064955;28;20197;-89
2021/05/07 02:09:07;;;;;;;0.37;0.37;;;4.20;99.90;;;;;;5075085;28;20455;-90
2021/05/07 02:11:33;;;;;;;0.43;0.43;;;4.20;99.90;;;;;;5076734;28;20249;-89
2021/05/07 02:13:59;;;;;;;0.73;0.63;;;4.30;99.90;;;;;;5076783;28;20611;-89
2021/05/07 02:16:24;;;;;;;0.90;0.90;;;4.30;99.90;;;;;;5076098;28;20209;-89
2021/05/07 02:18:50;;;;;;;0.80;0.80;;;4.40;99.90;;;;;;5083882;28;20285;-90
2021/05/07 02:21:16;;;;;;;0.83;0.60;;;4.40;99.90;;;;;;5058582;28;20185;-90
2021/05/07 02:23:42;;;;;;;0.63;0.63;;;4.50;99.90;;;;;;5076412;28;20887;-90
2021/05/07 02:26:08;;;;;;;0.47;0.47;;;4.60;99.90;;;;;;5057168;28;20219;-90
2021/05/07 02:28:33;;;;;;;2.10;1.00;;;4.60;99.90;;;;;;5075709;28;20681;-90
2021/05/07 02:30:59;;;;;;;0.77;0.77;;;4.60;99.90;;;;;;5051770;28;20224;-90
2021/05/07 02:33:25;;;;;;;0.53;0.53;;;4.60;99.90;;;;;;5063775;28;20247;-90
2021/05/07 02:35:50;;;;;;;2.00;1.17;;;4.60;99.90;;;;;;5100198;27;20209;-89
2021/05/07 02:38:16;;;;;;;0.43;0.43;;;4.60;99.90;;;;;;5043592;28;20223;-90
2021/05/07 02:40:42;;;;;;;1.00;1.00;;;4.60;99.90;;;;;;5074390;28;20637;-89
2021/05/07 02:43:10;;;;;;;0.90;0.60;;;4.60;99.90;;;;;;5049005;28;20220;-89
2021/05/07 02:45:35;;;;;;;0.70;0.57;;;4.50;99.90;;;;;;5082390;28;20752;-90
2021/05/07 02:48:01;;;;;;;0.53;0.53;;;4.50;99.90;;;;;;5058033;28;20192;-88
2021/05/07 02:50:27;;;;;;;0.97;0.97;;;4.50;99.90;;;;;;5060419;28;20628;-88
2021/05/07 02:52:52;;;;;;;0.97;0.97;;;4.60;99.90;;;;;;5084892;28;20201;-88
2021/05/07 02:55:18;;;;;;;0.60;0.50;;;4.70;99.90;;;;;;5052899;28;20347;-89
2021/05/07 02:57:44;;;;;;;0.83;0.83;;;4.70;99.90;;;;;;5046419;28;20192;-89
2021/05/07 03:00:10;;;;;;;1.03;0.70;;;4.60;99.90;;;;;;5049303;28;20192;-87
2021/05/07 03:02:36;;;;;;;1.00;1.00;;;4.60;99.90;;;;;;5057902;28;20209;-88
2021/05/07 03:05:05;;;;;;;2.20;0.97;;;4.60;99.90;;;;;;5064554;28;20212;-89
2021/05/07 03:07:31;;;;;;;1.27;1.20;;;4.60;99.90;;;;;;5055518;28;20210;-88
2021/05/07 03:09:57;;;;;;;0.40;0.40;;;4.50;99.90;;;;;;5042129;28;20212;-88
2021/05/07 03:12:23;;;;;;;0.80;0.70;;;4.40;99.90;;;;;;5066000;28;20283;-90
2021/05/07 03:14:48;;;;;;;0.93;0.83;;;4.30;99.90;;;;;;5037836;28;20253;-88
2021/05/07 03:17:14;;;;;;;0.63;0.63;;;4.20;99.90;;;;;;5043463;28;20255;-88
2021/05/07 03:19:40;;;;;;;0.50;0.50;;;4.10;99.90;;;;;;5045537;28;20326;-88
2021/05/07 03:22:06;;;;;;;0.40;0.40;;;3.80;99.90;;;;;;5055412;28;20224;-89
2021/05/07 03:24:31;;;;;;;0.30;0.30;;;3.50;99.90;;;;;;5079456;28;20557;-88
2021/05/07 03:26:57;;;;;;;0.57;0.57;;;3.40;99.90;;;;;;5044556;28;20221;-87
2021/05/07 03:29:23;;;;;;;0.50;0.50;;;3.30;99.90;;;;;;5045056;28;20611;-88
2021/05/07 03:31:49;;;;;;;0.70;0.70;;;3.30;99.90;;;;;;5061381;28;20220;-88
2021/05/07 03:34:14;;;;;;;0.40;0.40;;;3.30;99.90;;;;;;5060291;28;20228;-88
2021/05/07 03:36:40;;;;;;;0.30;0.30;;;3.20;99.90;;;;;;5056069;28;20224;-89
2021/05/07 03:39:06;;;;;;;0.70;0.70;;;3.10;99.90;;;;;;5071315;28;20198;-89
2021/05/07 03:41:32;;;;;;;0.60;0.60;;;3.00;99.90;;;;;;5040882;28;20224;-89
2021/05/07 03:43:58;;;;;;;0.37;0.37;;;2.90;99.90;;;;;;5058187;28;20251;-88
2021/05/07 03:46:23;;;;;;;0.30;0.30;;;2.80;99.90;;;;;;5040251;28;20656;-89
2021/05/07 03:48:49;;;;;;;0.40;0.40;;;2.90;99.90;;;;;;5047229;28;20188;-89
2021/05/07 03:51:15;;;;;;;0.50;0.50;;;2.90;99.90;;;;;;5041561;28;20186;-89
2021/05/07 03:53:40;;;;;;;0.50;0.50;;;2.90;99.90;;;;;;5066296;28;20208;-90
2021/05/07 03:56:06;;;;;;;0.40;0.40;;;2.90;99.90;;;;;;5056194;28;20240;-89
2021/05/07 03:58:32;;;;;;;0.50;0.50;;;2.80;99.90;;;;;;5048961;28;20205;-89
2021/05/07 04:00:58;;;;;;;2.73;0.97;;;2.80;99.90;;;;;;5050218;28;20219;-88
2021/05/07 04:03:23;;;;;;;0.50;0.50;;;2.80;99.90;;;;;;5041899;28;20592;-89
2021/05/07 04:05:52;;;;;;;0.50;0.50;;;2.80;99.90;;;;;;5049824;28;20624;-88
2021/05/07 04:08:24;;;;;;;0.63;0.63;;;2.80;99.90;;;;;;5055912;28;20300;-90
2021/05/07 04:13:42;;;;;;;0.80;0.80;;;2.80;99.90;;;;;;5047888;28;20213;-88
2021/05/07 04:16:08;;;;;;;0.80;0.80;;;2.80;99.90;;;;;;5055537;28;20689;-89
2021/05/07 04:18:35;;;;;;;0.40;0.40;;;2.80;99.90;;;;;;5039321;28;20788;-90
2021/05/07 04:21:01;;;;;;;0.40;0.40;;;2.80;99.90;;;;;;5070542;28;20242;-90
2021/05/07 04:23:28;;;;;;;0.57;0.57;;;2.80;99.90;;;;;;5061559;28;20217;-89
2021/05/07 04:25:54;;;;;;;0.40;0.40;;;2.90;99.90;;;;;;5055062;28;20676;-88
2021/05/07 04:28:21;;;;;;;2.00;1.00;;;3.00;99.90;;;;;;5067135;28;20704;-89
2021/05/07 04:30:47;;;;;;;0.40;0.40;;;3.10;99.90;;;;;;5039575;28;20252;-89
2021/05/07 04:33:13;;;;;;;0.50;0.50;;;3.20;99.90;;;;;;5067511;28;20240;-88
2021/05/07 04:35:39;;;;;;;1.07;0.70;;;3.30;99.90;;;;;;5066274;28;20339;-89
2021/05/07 04:38:05;;;;;;;1.20;1.20;;;3.30;99.90;;;;;;5065982;28;20225;-89
2021/05/07 04:40:32;;;;;;;0.60;0.60;;;3.40;99.90;;;;;;5077105;28;20225;-89
2021/05/07 04:43:01;;;;;;;0.70;0.70;;;3.60;99.90;;;;;;5091574;28;20320;-89
2021/05/07 04:45:30;;;;;;;0.57;0.50;;;3.70;99.90;;;;;;5049831;28;20224;-90
2021/05/07 04:47:57;;;;;;;0.67;0.67;;;3.70;99.90;;;;;;5072208;28;20221;-89
2021/05/07 04:50:23;;;;;;;0.43;0.43;;;3.80;99.90;;;;;;5059103;28;20252;-90
2021/05/07 04:52:49;;;;;;;0.60;0.60;;;3.90;99.90;;;;;;5059123;28;20613;-89
2021/05/07 04:55:15;;;;;;;0.50;0.50;;;3.90;99.90;;;;;;5065122;28;20236;-90
2021/05/07 04:57:42;;;;;;;0.50;0.50;;;3.90;99.90;;;;;;5038372;28;20650;-91
2021/05/07 05:00:08;;;;;;;0.57;0.57;;;3.80;99.90;;;;;;5057087;28;20281;-89
2021/05/07 05:02:35;;;;;;;1.33;1.30;;;3.90;99.90;;;;;;5063823;28;20738;-89
2021/05/07 05:05:04;;;;;;;0.50;0.50;;;3.90;99.90;;;;;;5064057;28;20220;-89
2021/05/07 05:07:30;;;;;;;1.63;1.00;;;4.00;99.90;;;;;;5056203;28;20314;-89
2021/05/07 05:09:55;;;;;;;0.87;0.87;;;4.00;99.90;;;;;;5058894;28;20350;-89
2021/05/07 05:12:21;;;;;;;0.77;0.63;;;4.10;99.90;;;;;;5067560;28;20207;-90
2021/05/07 05:14:47;;;;;;;1.00;1.00;;;4.20;99.90;;;;;;5070544;28;20249;-90
2021/05/07 05:17:13;;;;;;;0.63;0.63;;;4.30;99.90;;;;;;5072089;28;20337;-89
2021/05/07 05:19:39;;;;;;;0.60;0.60;;;4.60;99.90;;;;;;5078188;28;20589;-89
2021/05/07 05:22:04;;;;;;;0.83;0.80;;;6.30;99.90;;;;;;5058300;28;20209;-90
2021/05/07 05:24:30;;;;;;;0.97;0.87;;;8.20;99.90;;;;;;5067010;28;20186;-89
2021/05/07 05:26:56;;;;;;;1.03;1.03;;;11.00;99.90;;;;;;5072631;28;20406;-89
2021/05/07 05:29:23;;;;;;;1.20;1.10;;;14.10;99.90;;;;;;5066465;28;20689;-90
2021/05/07 05:31:49;;;;;;;0.83;0.83;;;16.40;99.90;;;;;;5058113;28;20221;-89
2021/05/07 05:34:14;;;;;;;0.70;0.70;;;17.60;99.90;;;;;;5050223;28;20244;-89
2021/05/07 05:36:46;;;;;;;0.93;0.93;;;19.20;99.90;;;;;;5038396;28;20189;-90
2021/05/07 05:39:15;;;;;;;0.77;0.63;;;16.60;99.90;;;;;;5079425;28;20185;-90
2021/05/07 05:41:42;;;;;;;1.33;1.20;;;12.70;99.90;;;;;;5043919;28;20263;-90
2021/05/07 05:44:09;;;;;;;0.70;0.70;;;12.70;99.90;;;;;;5076973;28;20236;-90
2021/05/07 05:46:37;;;;;;;0.40;0.40;;;12.50;99.90;;;;;;5066085;28;20711;-90
2021/05/07 05:49:04;;;;;;;0.80;0.60;;;10.50;99.90;;;;;;5072178;28;20221;-90
2021/05/07 05:51:29;;;;;;;0.63;0.50;;;8.80;99.90;;;;;;5057931;28;20638;-90
2021/05/07 05:53:55;;;;;;;0.30;0.30;;;9.00;99.90;;;;;;5037798;28;20217;-90
2021/05/07 05:56:21;;;;;;;0.80;0.77;;;8.40;99.90;;;;;;5040102;28;20224;-89
2021/05/07 05:58:47;;;;;;;0.63;0.63;;;7.90;99.90;;;;;;5070633;28;20624;-91
2021/05/07 06:01:12;;;;;;;1.13;1.03;;;7.60;99.90;;;;;;5043313;28;20315;-91
2021/05/07 06:03:38;;;;;;;1.00;1.00;;;7.80;99.90;;;;;;5063178;28;20292;-91
2021/05/07 06:06:04;;;;;;;1.60;1.27;;;8.10;99.90;;;;;;5059360;28;20189;-90
2021/05/07 06:08:30;;;;;;;1.20;1.20;;;8.40;99.90;;;;;;5044535;28;20638;-89
2021/05/07 06:10:56;;;;;;;0.83;0.63;;;8.40;99.90;;;;;;5047409;28;20213;-91
2021/05/07 06:13:21;;;;;;;0.97;0.90;;;8.10;99.90;;;;;;5063524;28;20247;-90
2021/05/07 06:15:47;;;;;;;7.77;1.50;;;9.30;99.90;;;;;;5046826;28;20217;-90
2021/05/07 06:18:13;;;;;;;5.93;0.90;;;11.50;99.90;;;;;;5047904;28;20342;-90
2021/05/07 06:20:39;;;;;;;0.60;0.60;;;13.20;99.90;;;;;;5047295;28;20218;-92
2021/05/07 06:23:04;;;;;;;0.70;0.70;;;13.80;99.90;;;;;;5052243;28;20704;-87
2021/05/07 06:25:30;;;;;;;1.43;0.67;;;13.90;99.90;;;;;;5035622;28;20219;-87
2021/05/07 06:27:56;;;;;;;0.33;0.33;;;14.00;99.90;;;;;;5050041;28;20716;-88
2021/05/07 06:30:22;;;;;;;0.50;0.50;;;13.30;99.90;;;;;;5061533;28;20187;-88
2021/05/07 06:32:48;;;;;;;1.40;0.50;;;13.20;99.90;;;;;;5081632;28;20209;-88
2021/05/07 06:35:14;;;;;;;0.77;0.77;;;13.00;99.90;;;;;;5051986;28;20647;-89
2021/05/07 06:37:40;;;;;;;0.30;0.30;;;12.90;99.90;;;;;;5079968;28;20209;-89
2021/05/07 06:40:07;;;;;;;0.60;0.57;;;12.70;99.90;;;;;;5063863;28;20221;-88
2021/05/07 06:42:37;;;;;;;1.03;0.50;;;13.00;99.90;;;;;;5063429;28;20273;-86
2021/05/07 06:45:08;;;;;;;2.83;0.83;;;12.90;99.90;;;;;;5038099;28;20266;-91
2021/05/07 06:47:34;;;;;;;1.87;0.47;;;12.70;99.90;;;;;;5059014;28;20209;-89
2021/05/07 06:50:00;;;;;;;0.43;0.43;;;13.00;99.90;;;;;;5054288;28;20271;-88
2021/05/07 06:52:26;;;;;;;0.70;0.70;;;13.00;99.90;;;;;;5070167;28;20226;-90
2021/05/07 06:54:52;;;;;;;0.30;0.30;;;12.80;99.90;;;;;;5071316;28;20224;-90
2021/05/07 06:57:18;;;;;;;0.23;0.23;;;13.40;99.90;;;;;;5055102;28;20193;-90
2021/05/07 06:59:47;;;;;;;0.97;0.60;;;13.40;99.90;;;;;;5038908;28;20209;-89
2021/05/07 07:02:13;;;;;;;0.50;0.50;;;13.50;99.90;;;;;;5055615;28;20205;-90
2021/05/07 07:04:39;;;;;;;0.97;0.97;;;13.60;99.90;;;;;;5062999;28;20217;-90
2021/05/07 07:07:06;;;;;;;2.67;0.67;;;12.90;99.90;;;;;;5046208;28;20214;-89
2021/05/07 07:09:31;;;;;;;1.20;0.70;;;12.80;99.90;;;;;;5062457;28;20252;-89
2021/05/07 07:11:57;;;;;;;3.87;0.73;;;14.10;99.90;;;;;;5045498;28;20210;-90
2021/05/07 07:14:23;;;;;;;1.13;0.87;;;14.00;99.90;;;;;;5052171;28;20216;-89
2021/05/07 07:16:48;;;;;;;0.50;0.50;;;14.10;99.90;;;;;;5073394;28;20227;-90
2021/05/07 07:19:14;;;;;;;0.40;0.40;;;14.60;99.90;;;;;;5076863;28;20227;-90
2021/05/07 07:21:40;;;;;;;1.67;0.70;;;13.60;99.90;;;;;;5056187;28;20263;-90
2021/05/07 07:24:06;;;;;;;0.60;0.60;;;14.40;99.90;;;;;;5066883;28;20176;-89
2021/05/07 07:26:32;;;;;;;0.50;0.50;;;14.50;99.90;;;;;;5055333;28;20224;-89
2021/05/07 07:28:58;;;;;;;1.07;0.63;;;14.40;99.90;;;;;;5060332;28;20225;-87
2021/05/07 07:31:23;;;;;;;0.83;0.43;;;15.60;99.90;;;;;;5083489;28;20224;-87
2021/05/07 07:33:49;;;;;;;1.80;0.40;;;15.30;99.90;;;;;;5062942;28;20634;-86
2021/05/07 07:36:16;;;;;;;0.60;0.60;;;14.20;99.90;;;;;;5064831;28;20546;-87
2021/05/07 07:38:41;;;;;;;0.47;0.47;;;14.20;99.90;;;;;;5058000;28;20214;-87
2021/05/07 07:41:07;;;;;;;0.60;0.60;;;14.20;99.90;;;;;;5048252;28;20252;-88
2021/05/07 07:43:33;;;;;;;0.73;0.73;;;15.10;99.90;;;;;;5055869;28;20205;-89
2021/05/07 07:46:00;;;;;;;0.57;0.57;;;15.80;99.90;;;;;;5081498;28;20254;-87
2021/05/07 07:48:27;;;;;;;0.73;0.57;;;15.50;99.90;;;;;;5066296;28;20185;-87
2021/05/07 07:50:53;;;;;;;0.40;0.40;;;15.10;99.90;;;;;;5063858;28;20626;-87
2021/05/07 07:53:19;;;;;;;0.70;0.40;;;13.60;99.90;;;;;;5058424;28;20229;-86
2021/05/07 07:55:45;;;;;;;0.60;0.40;;;14.30;99.90;;;;;;5051774;28;20302;-86
2021/05/07 07:58:10;;;;;;;0.97;0.90;;;14.70;99.90;;;;;;5041018;28;20224;-86
2021/05/07 08:00:36;;;;;;;1.20;0.50;;;15.90;99.90;;;;;;5055714;28;20184;-87
2021/05/07 08:03:02;;;;;;;0.60;0.60;;;15.60;99.90;;;;;;5063953;28;20178;-86
2021/05/07 08:05:28;;;;;;;0.80;0.80;;;15.50;99.90;;;;;;5092924;28;20255;-87
2021/05/07 08:08:00;;;;;;;0.70;0.50;;;15.50;99.90;;;;;;5057728;28;20221;-87
2021/05/07 08:10:26;;;;;;;0.60;0.60;;;13.90;99.90;;;;;;5043910;28;20221;-87
2021/05/07 08:12:52;;;;;;;0.60;0.43;;;13.90;99.90;;;;;;5026840;28;20192;-87
2021/05/07 08:15:20;;;;;;;0.30;0.30;;;14.60;99.90;;;;;;5069840;28;20252;-86
2021/05/07 08:17:47;;;;;;;0.47;0.47;;;14.10;99.90;;;;;;5085526;28;20234;-88
2021/05/07 08:20:15;;;;;;;1.70;0.70;;;13.70;99.90;;;;;;5068174;28;20251;-86
2021/05/07 08:22:41;;;;;;;0.77;0.70;;;16.30;99.90;;;;;;5063717;28;20217;-86
2021/05/07 08:25:10;;;;;;;0.60;0.60;;;17.10;99.90;;;;;;5047750;28;20701;-87
2021/05/07 08:27:36;;;;;;;0.50;0.50;;;16.00;99.90;;;;;;5076596;28;20193;-87
2021/05/07 08:30:04;;;;;;;0.70;0.70;;;14.30;99.90;;;;;;5066020;28;20174;-86
2021/05/07 08:32:29;;;;;;;1.53;0.60;;;13.20;99.90;;;;;;5063656;28;20300;-86
2021/05/07 08:34:55;;;;;;;0.80;0.60;;;13.80;99.90;;;;;;5050335;28;20777;-86
2021/05/07 08:37:21;;;;;;;0.57;0.50;;;14.30;99.90;;;;;;5054505;28;20304;-86
2021/05/07 08:39:47;;;;;;;1.47;0.80;;;12.90;99.90;;;;;;5048274;28;20710;-86
2021/05/07 08:42:13;;;;;;;2.47;0.80;;;12.50;99.90;;;;;;5059952;28;20269;-87
2021/05/07 08:44:39;;;;;;;0.47;0.47;;;13.80;99.90;;;;;;5065757;28;20209;-85
2021/05/07 08:47:05;;;;;;;0.50;0.50;;;13.70;99.90;;;;;;5066917;28;20231;-88
2021/05/07 08:49:31;;;;;;;0.50;0.50;;;13.20;99.90;;;;;;5067185;28;20237;-86
2021/05/07 08:51:57;;;;;;;0.80;0.80;;;13.70;99.90;;;;;;5076199;28;20635;-87
2021/05/07 08:54:27;;;;;;;0.40;0.40;;;14.20;99.90;;;;;;5075180;28;20220;-89
2021/05/07 08:56:53;;;;;;;0.43;0.40;;;15.40;99.90;;;;;;5039150;28;20220;-87
2021/05/07 08:59:18;;;;;;;0.90;0.70;;;16.10;99.90;;;;;;5063536;28;20204;-87
2021/05/07 09:01:46;;;;;;;0.70;0.57;;;16.40;99.90;;;;;;5074137;28;20216;-87
2021/05/07 09:04:14;;;;;;;0.80;0.80;;;14.90;99.90;;;;;;5076522;28;20220;-86
2021/05/07 09:06:51;;;;;;;2.50;1.10;;;13.10;99.90;;;;;;5084690;28;20177;-86
2021/05/07 09:09:29;;;;;;;0.50;0.50;;;11.60;99.90;;;;;;5093243;28;20174;-89
2021/05/07 09:12:00;;;;;;;0.47;0.47;;;12.30;99.90;;;;;;5048966;28;20209;-89
2021/05/07 09:14:27;;;;;;;0.50;0.50;;;11.80;99.90;;;;;;5071772;28;20220;-87
2021/05/07 09:17:02;;;;;;;1.33;0.60;;;11.50;99.90;;;;;;5083743;28;20229;-89
2021/05/07 09:19:34;;;;;;;0.40;0.40;;;11.90;99.90;;;;;;5077224;28;20283;-88
2021/05/07 09:22:00;;;;;;;0.50;0.50;;;12.60;99.90;;;;;;5053880;28;20936;-89
2021/05/07 09:24:37;;;;;;;0.50;0.50;;;14.50;99.90;;;;;;5059460;28;20196;-89
2021/05/07 09:27:04;;;;;;;1.80;0.80;;;14.60;99.90;;;;;;5078104;28;20601;-88
2021/05/07 09:29:31;;;;;;;0.60;0.47;;;13.70;99.90;;;;;;5060520;28;20232;-89
2021/05/07 09:32:00;;;;;;;0.33;0.33;;;12.20;99.90;;;;;;5052096;28;20723;-89
2021/05/07 09:34:27;;;;;;;1.77;0.93;;;13.20;99.90;;;;;;5068871;28;20237;-89
2021/05/07 09:36:52;;;;;;;0.63;0.63;;;15.00;99.90;;;;;;5064515;28;20200;-88
2021/05/07 09:39:23;;;;;;;0.67;0.67;;;14.40;99.90;;;;;;5067270;28;20182;-86
2021/05/07 09:41:51;;;;;;;0.50;0.50;;;12.30;99.90;;;;;;5042449;28;20225;-87
2021/05/07 09:44:22;;;;;;;0.87;0.80;;;12.30;99.90;;;;;;5064281;28;20307;-86
2021/05/07 09:46:49;;;;;;;0.33;0.33;;;13.70;99.90;;;;;;5057107;28;20213;-89
2021/05/07 09:49:31;;;;;;;0.73;0.73;;;13.40;99.90;;;;;;5089284;28;20236;-87
2021/05/07 09:51:58;;;;;;;0.80;0.80;;;12.90;99.90;;;;;;5051701;28;20217;-89
2021/05/07 09:54:26;;;;;;;0.80;0.30;;;14.00;99.90;;;;;;5056563;28;20209;-89
2021/05/07 09:56:54;;;;;;;0.87;0.83;;;13.90;99.90;;;;;;5076589;28;20210;-88
2021/05/07 09:59:21;;;;;;;2.40;0.50;;;14.00;99.90;;;;;;5077954;28;20567;-86
2021/05/07 10:01:47;;;;;;;0.50;0.50;;;14.80;99.90;;;;;;5064168;28;20296;-86
2021/05/07 10:04:14;;;;;;;0.40;0.40;;;13.30;99.90;;;;;;5065893;28;20221;-86
2021/05/07 10:06:41;;;;;;;1.27;0.47;;;14.20;99.90;;;;;;5054365;28;20189;-86
2021/05/07 10:09:08;;;;;;;0.53;0.43;;;14.40;99.90;;;;;;5041484;28;20831;-86
2021/05/07 10:11:42;;;;;;;0.60;0.60;;;13.30;99.90;;;;;;5065268;28;20220;-86
2021/05/07 10:14:13;;;;;;;0.40;0.40;;;11.80;99.90;;;;;;5064837;28;20228;-88
2021/05/07 10:16:40;;;;;;;0.90;0.70;;;10.60;99.90;;;;;;5061109;28;20222;-89
2021/05/07 10:19:07;;;;;;;1.67;0.77;;;11.70;99.90;;;;;;5071795;28;20226;-89
2021/05/07 10:21:41;;;;;;;0.30;0.30;;;13.80;99.90;;;;;;5040253;28;20186;-89
2021/05/07 10:24:09;;;;;;;0.40;0.40;;;13.80;99.90;;;;;;5051878;28;20225;-88
2021/05/07 10:26:36;;;;;;;1.33;0.80;;;13.90;99.90;;;;;;5066320;28;20637;-89
2021/05/07 10:29:18;;;;;;;3.60;0.80;;;13.90;99.90;;;;;;5062333;28;20217;-89
2021/05/07 10:31:48;;;;;;;1.00;0.90;;;14.70;99.90;;;;;;5094345;27;20255;-90
2021/05/07 10:34:15;;;;;;;0.40;0.40;;;14.90;99.90;;;;;;5071199;28;20232;-86
2021/05/07 10:36:45;;;;;;;3.27;0.83;;;14.10;99.90;;;;;;5067042;28;20234;-87
2021/05/07 10:39:22;;;;;;;1.17;0.63;;;14.30;99.90;;;;;;5081144;28;20186;-88
2021/05/07 10:41:49;;;;;;;1.43;0.77;;;14.10;99.90;;;;;;5054976;28;20237;-89
2021/05/07 10:44:22;;;;;;;1.40;0.60;;;12.70;99.90;;;;;;5085983;28;20209;-88
2021/05/07 10:47:06;;;;;;;0.63;0.63;;;12.70;99.90;;;;;;5066210;28;20206;-88
2021/05/07 10:49:34;;;;;;;0.70;0.53;;;13.50;99.90;;;;;;5070293;28;20222;-89
2021/05/07 10:52:01;;;;;;;1.90;1.00;;;13.70;99.90;;;;;;5057327;28;20316;-90
2021/05/07 10:54:44;;;;;;;0.73;0.70;;;13.50;99.90;;;;;;5075213;28;20241;-86
2021/05/07 10:57:23;;;;;;;1.80;0.60;;;13.50;99.90;;;;;;5092435;28;20227;-90
2021/05/07 10:59:53;;;;;;;1.97;0.67;;;13.80;99.90;;;;;;5074671;28;20223;-88
2021/05/07 11:02:19;;;;;;;1.33;0.60;;;12.80;99.90;;;;;;5069802;28;20221;-89
2021/05/07 11:04:47;;;;;;;11.50;1.37;;;13.10;99.90;;;;;;5054692;28;20206;-88
2021/05/07 11:07:12;;;;;;;3.10;1.03;;;13.70;99.90;;;;;;5054269;28;20236;-89
2021/05/07 11:09:38;;;;;;;1.10;1.00;;;14.50;99.90;;;;;;5036706;28;20266;-89
2021/05/07 11:12:08;;;;;;;0.80;0.80;;;14.30;99.90;;;;;;5065118;28;20242;-88
2021/05/07 11:14:38;;;;;;;2.53;0.80;;;13.90;99.90;;;;;;5061403;28;20225;-89
2021/05/07 11:17:04;;;;;;;1.60;0.90;;;13.40;99.90;;;;;;5062094;28;20228;-89
2021/05/07 11:19:32;;;;;;;1.63;0.73;;;13.90;99.90;;;;;;5049408;28;20272;-88
2021/05/07 11:22:03;;;;;;;0.87;0.57;;;14.30;99.90;;;;;;5054208;28;20228;-89
2021/05/07 11:24:31;;;;;;;4.57;0.93;;;14.40;99.90;;;;;;5062436;28;20637;-88
2021/05/07 11:26:58;;;;;;;2.27;1.83;;;15.10;99.90;;;;;;5074541;28;20220;-89
2021/05/07 11:29:32;;;;;;;0.70;0.70;;;15.50;99.90;;;;;;5065378;28;20209;-89
2021/05/07 11:32:09;;;;;;;0.53;0.53;;;14.60;99.90;;;;;;5061828;28;20730;-88
2021/05/07 11:34:35;;;;;;;0.70;0.70;;;13.50;99.90;;;;;;5052991;28;20213;-90
2021/05/07 11:37:01;;;;;;;2.73;0.77;;;13.40;99.90;;;;;;5059019;28;20213;-88
2021/05/07 11:39:27;;;;;;;1.07;0.97;;;13.30;99.90;;;;;;5074110;28;20543;-88
2021/05/07 11:41:53;;;;;;;1.20;0.60;;;13.40;99.90;;;;;;5085474;28;20684;-88
2021/05/07 11:44:19;;;;;;;0.33;0.33;;;13.00;99.90;;;;;;5052283;28;20227;-90
2021/05/07 11:47:06;;;;;;;0.43;0.43;;;12.90;99.90;;;;;;5064551;28;20216;-89
2021/05/07 11:49:47;;;;;;;2.20;0.60;;;12.90;99.90;;;;;;5071387;28;20642;-88
2021/05/07 11:52:12;;;;;;;0.70;0.70;;;13.00;99.90;;;;;;5060527;28;20229;-89
2021/05/07 11:54:43;;;;;;;0.40;0.40;;;13.50;99.90;;;;;;5055874;28;20205;-88
2021/05/07 11:57:10;;;;;;;1.47;0.70;;;13.00;99.90;;;;;;5092106;28;20177;-89
2021/05/07 11:59:51;;;;;;;2.27;0.50;;;12.90;99.90;;;;;;5081706;28;20205;-88
2021/05/07 12:02:26;;;;;;;0.30;0.30;;;13.00;99.90;;;;;;5074751;28;20214;-87
2021/05/07 12:04:54;;;;;;;0.50;0.50;;;12.30;99.90;;;;;;5066495;28;20197;-88
2021/05/07 12:07:28;;;;;;;0.53;0.53;;;12.20;99.90;;;;;;5071831;28;20600;-89
2021/05/07 12:09:55;;;;;;;0.50;0.50;;;11.90;99.90;;;;;;5075542;28;20169;-89
2021/05/07 12:12:21;;;;;;;1.37;0.60;;;11.90;99.90;;;;;;5064615;28;20559;-88
2021/05/07 12:14:51;;;;;;;0.40;0.40;;;11.70;99.90;;;;;;5046400;28;20206;-89
2021/05/07 12:17:18;;;;;;;1.27;1.00;;;11.40;99.90;;;;;;5065027;28;20213;-89
2021/05/07 12:19:56;;;;;;;0.77;0.70;;;11.40;99.90;;;;;;5080846;28;20225;-88
2021/05/07 12:22:22;;;;;;;2.00;0.40;;;11.40;99.90;;;;;;5057007;28;20212;-88
2021/05/07 12:24:49;;;;;;;0.67;0.50;;;11.20;99.90;;;;;;5047393;28;20190;-93
2021/05/07 12:27:26;;;;;;;1.47;1.07;;;11.50;99.90;;;;;;5067856;28;20328;-92
2021/05/07 12:29:52;;;;;;;0.30;0.30;;;11.50;99.90;;;;;;5074588;28;20225;-92
2021/05/07 12:32:22;;;;;;;0.40;0.40;;;11.30;99.90;;;;;;5078785;28;20222;-92
2021/05/07 12:34:58;;;;;;;0.83;0.80;;;11.30;99.90;;;;;;5077163;28;20827;-87
2021/05/07 12:37:24;;;;;;;0.93;0.87;;;11.60;99.90;;;;;;5040982;28;20764;-88
2021/05/07 12:39:50;;;;;;;0.60;0.60;;;11.70;99.90;;;;;;5056553;28;20197;-89
2021/05/07 12:42:16;;;;;;;0.30;0.30;;;11.70;99.90;;;;;;5085746;28;20620;-91
2021/05/07 12:44:41;;;;;;;0.57;0.57;;;11.70;99.90;;;;;;5067769;28;20223;-88
2021/05/07 12:47:07;;;;;;;0.50;0.50;;;11.50;99.90;;;;;;5058121;28;20326;-90
2021/05/07 12:49:33;;;;;;;0.57;0.57;;;11.60;99.90;;;;;;5058331;28;20202;-88
2021/05/07 12:52:00;;;;;;;0.73;0.73;;;12.10;99.90;;;;;;5041264;28;20212;-87
2021/05/07 12:54:25;;;;;;;0.40;0.40;;;12.10;99.90;;;;;;5069095;28;20251;-90